»·PEaware :: N6956H KVNY-KSAN

N6956H :: KVNY-KSAN

FLIGHT INFORMATION

Flight Status: Arrived
Operator: Privately registered:
United States
More flights under this callsign
Pilot: Joe C. (19058)
Aircraft: SOCATA TBM-900
(TBM9)
More flights by this aircraft type
Origin: KVNY Van Nuys
United States
Destination: KSAN San Diego Intl-Lindbergh
United States
More flights between these airports :: More routes between these airports
Route: TWINE V518 KIMMO V459 SLI V23 KELPS MZB
File this flight plan on PilotEdge
Remarks: BURP30A
Altitude:
(Current/Filed)
9,000ft
Speed:
(Current/Filed)
250kts
Departed: 29-Oct-18 07:03 PM
Arrived: 29-Oct-18 07:47 PM
Distance/Time
Traveled:
110nm/0:44
Distance/Time
To Go:
Arrived

Flight Plot

Page will automatically refresh every two minutes.


Map Options




Map Legend


Flown Route
Filed Route
Departure Airport
Arrival Airport
Navaid (VOR, NDB)
Fix

Horizontal Profiles

Position Reports

Time Latitude Longitude Heading Altitude Ground
Speed
29-Oct-18 18:41 34.203583 -118.491547 180 805ft 0kts
29-Oct-18 18:42 34.203583 -118.491547 180 805ft 0kts
29-Oct-18 18:43 34.203583 -118.491547 180 805ft 0kts
29-Oct-18 18:44 34.203583 -118.491547 180 805ft 0kts
29-Oct-18 18:45 34.203583 -118.491547 180 805ft 0kts
29-Oct-18 18:46 34.203583 -118.491547 180 805ft 0kts
29-Oct-18 18:47 34.203583 -118.491547 180 805ft 0kts
29-Oct-18 18:48 34.203583 -118.491547 180 805ft 0kts
29-Oct-18 18:49 34.203583 -118.491547 180 805ft 0kts
29-Oct-18 18:50 34.203583 -118.491547 180 805ft 0kts
29-Oct-18 18:51 34.203583 -118.491547 180 805ft 0kts
29-Oct-18 18:52 34.203583 -118.491547 180 805ft 0kts
29-Oct-18 18:53 34.203583 -118.491547 180 805ft 0kts
29-Oct-18 18:54 34.203583 -118.491547 180 805ft 0kts
29-Oct-18 18:55 34.203583 -118.491547 180 805ft 0kts
29-Oct-18 18:56 34.203583 -118.491547 180 805ft 0kts
29-Oct-18 18:57 34.203583 -118.491547 180 805ft 0kts
29-Oct-18 18:58 34.203477 -118.491338 85 805ft 0kts
29-Oct-18 18:59 34.203477 -118.491338 85 805ft 0kts
29-Oct-18 19:00 34.203477 -118.491338 85 805ft 0kts
29-Oct-18 19:01 34.203683 -118.490941 12 805ft 0kts
29-Oct-18 19:02 34.209328 -118.491501 354 805ft 27kts
29-Oct-18 19:03 34.216531 -118.492255 359 805ft 24kts
29-Oct-18 19:04 34.218678 -118.492207 53 805ft 0kts
29-Oct-18 19:05 34.205419 -118.489649 165 942ft 130kts
29-Oct-18 19:06 34.185158 -118.454833 122 3003ft 127kts
29-Oct-18 19:07 34.166276 -118.413107 122 4271ft 169kts
29-Oct-18 19:08 34.147744 -118.365350 86 6370ft 165kts
29-Oct-18 19:09 34.183422 -118.349208 351 8739ft 147kts
29-Oct-18 19:10 34.210673 -118.311773 124 9034ft 234kts
29-Oct-18 19:11 34.148666 -118.297572 182 9005ft 245kts
29-Oct-18 19:12 34.083464 -118.267589 154 8998ft 258kts
29-Oct-18 19:13 34.020972 -118.223802 152 8995ft 261kts
29-Oct-18 19:14 33.958421 -118.179235 152 8994ft 264kts
29-Oct-18 19:15 33.894673 -118.133847 152 8994ft 268kts
29-Oct-18 19:16 33.830789 -118.088449 152 9005ft 267kts
29-Oct-18 19:17 33.769521 -118.038304 138 9014ft 269kts
29-Oct-18 19:18 33.716398 -117.975576 138 9005ft 264kts
29-Oct-18 19:19 33.664284 -117.914011 138 9007ft 262kts
29-Oct-18 19:20 33.612399 -117.852869 137 8991ft 262kts
29-Oct-18 19:21 33.560584 -117.791889 137 8991ft 262kts
29-Oct-18 19:22 33.508600 -117.730799 137 8993ft 263kts
29-Oct-18 19:23 33.456110 -117.669245 136 8997ft 264kts
29-Oct-18 19:24 33.403412 -117.607559 135 9001ft 266kts
29-Oct-18 19:25 33.350602 -117.545855 135 8999ft 266kts
29-Oct-18 19:26 33.290275 -117.496830 156 8999ft 264kts
29-Oct-18 19:27 33.223414 -117.460901 157 8996ft 264kts
29-Oct-18 19:28 33.156381 -117.424946 157 8977ft 264kts
29-Oct-18 19:29 33.089540 -117.389175 157 8975ft 262kts
29-Oct-18 19:30 33.023099 -117.353692 157 8738ft 268kts
29-Oct-18 19:31 32.954041 -117.316834 157 7906ft 277kts
29-Oct-18 19:32 32.899030 -117.259927 111 6544ft 272kts
29-Oct-18 19:33 32.873249 -117.177563 111 5005ft 258kts
29-Oct-18 19:34 32.850346 -117.103653 111 4984ft 230kts
29-Oct-18 19:35 32.827900 -117.032756 111 4989ft 229kts
29-Oct-18 19:36 32.804790 -116.962349 111 4990ft 228kts
29-Oct-18 19:37 32.781320 -116.892498 111 4990ft 227kts
29-Oct-18 19:38 32.750804 -116.829676 165 4975ft 227kts
29-Oct-18 19:39 32.692338 -116.854796 211 4394ft 245kts
29-Oct-18 19:40 32.640323 -116.896925 252 3942ft 191kts
29-Oct-18 19:41 32.661950 -116.939415 311 3800ft 146kts
29-Oct-18 19:42 32.679078 -116.972638 286 3789ft 111kts
29-Oct-18 19:43 32.690434 -117.010076 284 3693ft 128kts
29-Oct-18 19:44 32.699992 -117.050369 284 2752ft 119kts
29-Oct-18 19:45 32.707907 -117.083517 283 1977ft 97kts
29-Oct-18 19:46 32.715309 -117.116231 285 1177ft 109kts
29-Oct-18 19:47 32.724092 -117.151260 284 627ft 105kts
29-Oct-18 19:49 32.732298 -117.184400 282 17ft 95kts
29-Oct-18 19:50 32.734741 -117.190637 56 16ft 8kts

Navigation Log

Ident Type
1. KVNY Airport
2. TWINE Fix
3. LANGE Fix
4. KIMMO Fix
5. BERRI Fix
6. DARTS Fix
7. DODGR Fix
8. SLI Navaid
9. MIDDS Fix
10. BALBO Fix
11. KRAUZ Fix
12. DANAH Fix
13. KELPS Fix
14. MZB Navaid
15. KSAN Airport